Melick, Netherlands
Current Conditions -  °F | °C
As of 1:50 AM on Wednesday 22 Oct 2014 (Local Time) from ETNG Reporting Station
Broken Clouds Broken Clouds  
Wind Chill: 40°   Ceiling: 3300
Heat Index: 45°   Visibility: 6mi
Dew Point: 41°   Wind: 9mph
Humidity: 87%   Direction: 340°NNW
Pressure: 29.91"   Gusts: NA
Location:  51.16°N, 6.02°E
Report Text: ETNG 212350Z 34008KT 9999 FEW015CB BKN033 07/05 Q1013 RETS
Loading
Personal Weather Stations






























Interactive Weather Map
Tropical Storm Tracking
New forecast layout! Learn more

10-Day Weather Forecast

Advertisements
Track Severe Weather on mobile